Terminal Aerodrome Forecast
Issued by NWS Wilmington, OH

Current Version | Previous Version | Graphics & Text | Print | Product List | Glossary On
Versions: 1 2 3 4 5 6 7 8 9 10 11 12 13 14 15 16
000
FTUS41 KILN 211600 AAA
TAFCMH
TAF AMD
KCMH 211616Z 2116/2212 01008KT P6SM OVC050
      TEMPO 2116/2118 BKN025
     FM220000 33010KT P6SM SCT040
     FM220600 28006KT P6SM FEW040=

USA.gov is the U.S. government's official web portal to all federal, state and local government web resources and services.